createdAt,value
2022-10-11T00:06:51.666Z,6
2022-10-11T00:16:56.732Z,9
2022-10-11T00:27:04.521Z,7
2022-10-11T00:37:09.218Z,7
2022-10-11T00:47:14.588Z,6
2022-10-11T00:57:22.050Z,5
2022-10-11T01:07:26.564Z,6
2022-10-11T01:17:33.980Z,5
2022-10-11T01:27:40.001Z,7
2022-10-11T01:37:46.401Z,6
2022-10-11T01:47:53.756Z,5
2022-10-11T01:58:00.133Z,5
2022-10-11T02:08:06.163Z,8
2022-10-11T02:18:10.076Z,5
2022-10-11T02:28:16.066Z,7
2022-10-11T02:38:21.314Z,6
2022-10-11T02:48:26.314Z,5
2022-10-11T02:58:34.570Z,6
2022-10-11T03:08:38.883Z,6
2022-10-11T03:18:42.310Z,6
2022-10-11T03:28:48.757Z,6
2022-10-11T03:39:00.090Z,6
2022-10-11T03:49:04.059Z,5
2022-10-11T03:59:07.843Z,6
2022-10-11T04:09:13.024Z,6
2022-10-11T04:19:20.228Z,6
2022-10-11T04:29:28.841Z,4
2022-10-11T04:39:31.049Z,5
2022-10-11T04:49:36.988Z,6
2022-10-11T04:59:45.475Z,5
2022-10-11T05:09:46.744Z,6
2022-10-11T05:19:52.760Z,7
2022-10-11T05:29:59.217Z,5
2022-10-11T05:40:07.256Z,6
2022-10-11T05:50:13.680Z,7
2022-10-11T06:00:18.734Z,6
2022-10-11T06:10:25.306Z,5
2022-10-11T06:20:29.082Z,6
2022-10-11T06:30:35.368Z,5
2022-10-11T06:40:42.793Z,7
2022-10-11T06:51:17.480Z,6
2022-10-11T07:01:11.811Z,5
2022-10-11T07:11:17.539Z,8
2022-10-11T07:21:24.234Z,5
2022-10-11T07:31:30.639Z,7
2022-10-11T07:41:36.813Z,5
2022-10-11T07:51:42.626Z,5
2022-10-11T08:01:49.053Z,6
2022-10-11T08:11:53.701Z,6
2022-10-11T08:22:00.951Z,5
2022-10-11T08:32:09.306Z,6
2022-10-11T08:42:14.573Z,6
2022-10-11T08:52:21.464Z,5
2022-10-11T09:02:39.092Z,8
2022-10-11T09:13:08.990Z,15
2022-10-11T09:23:12.473Z,9
2022-10-11T09:33:10.113Z,8
2022-10-11T09:43:17.243Z,6
2022-10-11T09:53:23.583Z,11
2022-10-11T10:03:29.143Z,6
2022-10-11T10:13:35.153Z,14
2022-10-11T10:23:40.403Z,12
2022-10-11T10:33:46.822Z,10
2022-10-11T10:43:51.658Z,10
2022-10-11T10:53:56.957Z,9
2022-10-11T11:04:02.229Z,7
2022-10-11T11:14:08.277Z,8
2022-10-11T11:24:15.422Z,8
2022-10-11T11:34:25.006Z,7
2022-10-11T11:44:27.668Z,9
2022-10-11T11:54:34.387Z,7
2022-10-11T12:04:41.862Z,8
2022-10-11T12:14:46.125Z,7
2022-10-11T12:24:52.942Z,6
2022-10-11T12:34:57.651Z,7
2022-10-11T12:45:03.007Z,7
2022-10-11T12:55:18.948Z,8
2022-10-11T13:05:16.490Z,5
2022-10-11T13:15:23.065Z,6
2022-10-11T13:25:28.318Z,8
2022-10-11T13:35:34.612Z,7
2022-10-11T13:45:40.233Z,6
2022-10-11T13:55:45.878Z,8
2022-10-11T14:05:52.635Z,6
2022-10-11T14:15:58.952Z,9
2022-10-11T14:26:03.936Z,9
2022-10-11T14:36:10.189Z,10
2022-10-11T14:46:16.822Z,8
2022-10-11T14:56:23.242Z,6
2022-10-11T15:06:29.956Z,13
2022-10-11T15:16:38.458Z,10
2022-10-11T15:26:46.292Z,12
2022-10-11T15:36:51.686Z,10
2022-10-11T15:46:57.303Z,12
2022-10-11T15:57:08.412Z,11
2022-10-11T16:07:09.570Z,11
2022-10-11T16:17:13.401Z,12
2022-10-11T16:27:19.188Z,13
2022-10-11T16:37:24.409Z,11
2022-10-11T16:47:30.868Z,15
2022-10-11T16:57:37.029Z,11
2022-10-11T17:07:41.362Z,12
2022-10-11T17:17:48.371Z,13
2022-10-11T17:27:56.382Z,14
2022-10-11T17:38:06.082Z,12
2022-10-11T17:48:09.664Z,14
2022-10-11T17:58:15.296Z,14
2022-10-11T18:08:20.510Z,21
2022-10-11T18:18:25.924Z,19
2022-10-11T18:28:31.766Z,16
2022-10-11T18:38:42.713Z,18
2022-10-11T18:48:42.200Z,20
2022-10-11T18:58:46.974Z,20
2022-10-11T19:08:53.088Z,19
2022-10-11T19:19:02.201Z,21
2022-10-11T19:29:03.033Z,18
2022-10-11T19:39:08.251Z,20
2022-10-11T19:49:16.101Z,22
2022-10-11T19:59:22.100Z,20
2022-10-11T20:09:59.566Z,22
2022-10-11T20:19:58.095Z,24
2022-10-11T20:29:57.502Z,26
2022-10-11T20:40:04.575Z,24
2022-10-11T20:50:11.641Z,22
2022-10-11T21:00:17.861Z,26
2022-10-11T21:10:24.859Z,24
2022-10-11T21:20:31.965Z,26
2022-10-11T21:30:38.627Z,23
2022-10-11T21:40:45.227Z,26
2022-10-11T21:50:51.994Z,24
2022-10-11T22:00:59.457Z,23
2022-10-11T22:11:06.979Z,24
2022-10-11T22:21:13.528Z,24
2022-10-11T22:31:19.006Z,27
2022-10-11T22:41:25.273Z,30
2022-10-11T22:51:31.283Z,27
2022-10-11T23:01:37.897Z,27
2022-10-11T23:11:44.922Z,25
2022-10-11T23:21:50.779Z,27
2022-10-11T23:31:55.605Z,32
2022-10-11T23:42:00.539Z,27
2022-10-11T23:52:07.036Z,26
